Time;durP1;ratioP1;P1;durP2;ratioP2;P2;SDS_P1;SDS_P2;PMS_P1;PMS_P2;Temp;Humidity;BMP_temperature;BMP_pressure;BME280_temperature;BME280_humidity;BME280_pressure;Samples;Min_cycle;Max_cycle;Signal;HPM_P1;HPM_P2
2022/11/07 00:00:02;;;;;;;12.70;7.50;;;8.40;99.90;;;;;;5114792;28;20511;-52
2022/11/07 00:02:28;;;;;;;14.53;8.87;;;8.30;99.90;;;;;;5114955;28;20485;-49
2022/11/07 00:04:55;;;;;;;13.77;6.83;;;8.30;99.90;;;;;;5114701;28;20469;-50
2022/11/07 00:07:23;;;;;;;10.70;6.80;;;8.30;99.90;;;;;;5115045;28;20447;-50
2022/11/07 00:09:52;;;;;;;16.03;8.60;;;8.40;99.90;;;;;;5115300;28;20437;-47
2022/11/07 00:12:19;;;;;;;16.43;7.57;;;8.40;99.90;;;;;;5114825;28;20512;-48
2022/11/07 00:14:48;;;;;;;13.30;7.17;;;8.40;99.90;;;;;;5115864;28;20437;-48
2022/11/07 00:17:15;;;;;;;15.43;7.00;;;8.40;99.90;;;;;;5106571;28;20856;-46
2022/11/07 00:19:41;;;;;;;9.63;6.17;;;8.50;99.90;;;;;;5115419;28;20892;-55
2022/11/07 00:22:09;;;;;;;14.20;7.50;;;8.40;99.90;;;;;;5114863;28;20438;-49
2022/11/07 00:24:37;;;;;;;13.23;6.53;;;8.40;99.90;;;;;;5106167;28;20513;-47
2022/11/07 00:27:04;;;;;;;11.03;7.30;;;8.40;99.90;;;;;;5114783;28;20520;-50
2022/11/07 00:29:30;;;;;;;17.40;7.50;;;8.40;99.90;;;;;;5115020;28;20437;-50
2022/11/07 00:31:58;;;;;;;11.03;6.43;;;8.50;99.90;;;;;;5115181;28;20472;-52
2022/11/07 00:34:25;;;;;;;10.70;6.13;;;8.40;99.90;;;;;;5114936;28;20541;-50
2022/11/07 00:36:53;;;;;;;15.77;6.10;;;8.40;99.90;;;;;;5117747;28;20450;-52
2022/11/07 00:39:20;;;;;;;10.03;6.73;;;8.40;99.90;;;;;;5118899;28;20949;-55
2022/11/07 00:41:48;;;;;;;14.93;7.70;;;8.40;99.90;;;;;;5119253;28;20479;-48
2022/11/07 00:44:15;;;;;;;15.17;7.77;;;8.40;99.90;;;;;;5119274;28;20445;-52
2022/11/07 00:46:42;;;;;;;10.23;6.03;;;8.40;99.90;;;;;;5118684;28;20468;-46
2022/11/07 00:49:09;;;;;;;10.47;6.33;;;8.40;99.90;;;;;;5119426;28;20441;-42
2022/11/07 00:51:36;;;;;;;13.00;6.70;;;8.30;99.90;;;;;;5119502;28;20516;-46
2022/11/07 00:54:03;;;;;;;11.83;6.93;;;8.30;99.90;;;;;;5118885;28;20452;-46
2022/11/07 00:56:30;;;;;;;9.73;6.40;;;8.30;99.90;;;;;;5118781;28;20509;-45
2022/11/07 00:58:59;;;;;;;10.03;6.50;;;8.30;99.90;;;;;;5118546;28;20464;-40
2022/11/07 01:01:34;;;;;;;12.60;8.00;;;8.30;99.90;;;;;;5118849;28;20428;-46
2022/11/07 01:06:49;;;;;;;13.97;6.80;;;8.50;99.90;;;;;;5118698;28;20448;-49
2022/11/07 01:09:18;;;;;;;10.10;6.63;;;8.60;99.90;;;;;;5118741;28;20446;-47
2022/11/07 01:11:45;;;;;;;13.20;7.37;;;8.50;99.90;;;;;;5118554;28;20485;-45
2022/11/07 01:14:15;;;;;;;10.73;6.60;;;8.60;99.90;;;;;;5118174;28;20446;-50
2022/11/07 01:16:42;;;;;;;11.10;5.80;;;8.50;99.90;;;;;;5118499;28;20425;-51
2022/11/07 01:19:09;;;;;;;13.27;7.87;;;8.50;99.90;;;;;;5118493;28;20532;-47
2022/11/07 01:21:41;;;;;;;13.10;9.10;;;8.50;99.90;;;;;;5118115;28;20433;-46
2022/11/07 01:24:12;;;;;;;10.53;6.13;;;8.60;99.90;;;;;;5118009;28;20552;-46
2022/11/07 01:26:40;;;;;;;16.97;7.60;;;8.60;99.90;;;;;;5118595;28;20421;-49
2022/11/07 01:29:08;;;;;;;14.43;7.10;;;8.60;99.90;;;;;;5118392;28;20445;-50
2022/11/07 01:31:36;;;;;;;13.03;7.10;;;8.60;99.90;;;;;;5118280;28;20468;-44
2022/11/07 01:34:03;;;;;;;12.03;6.90;;;8.60;99.90;;;;;;5118235;28;20438;-47
2022/11/07 01:36:30;;;;;;;12.93;7.23;;;8.50;99.90;;;;;;5118263;28;20448;-43
2022/11/07 01:38:58;;;;;;;14.57;7.47;;;8.50;99.90;;;;;;5118558;28;20424;-46
2022/11/07 01:41:28;;;;;;;17.67;6.50;;;8.50;99.90;;;;;;5117936;28;20489;-45
2022/11/07 01:43:59;;;;;;;15.67;7.77;;;8.60;99.90;;;;;;5118006;28;20422;-50
2022/11/07 01:46:31;;;;;;;11.80;6.83;;;8.60;99.90;;;;;;5118146;28;20430;-40
2022/11/07 01:49:12;;;;;;;15.43;7.70;;;8.60;99.90;;;;;;5117536;28;20477;-44
2022/11/07 01:51:44;;;;;;;12.00;7.17;;;8.60;99.90;;;;;;5118149;28;20480;-44
2022/11/07 01:54:13;;;;;;;13.47;7.33;;;8.60;99.90;;;;;;5118173;28;20420;-46
2022/11/07 01:56:43;;;;;;;9.80;6.50;;;8.60;99.90;;;;;;5117835;28;20428;-49
2022/11/07 01:59:13;;;;;;;12.60;7.33;;;8.60;99.90;;;;;;5117688;28;20452;-50
2022/11/07 02:01:41;;;;;;;9.10;5.73;;;8.60;99.90;;;;;;5117454;28;20452;-46
2022/11/07 02:04:10;;;;;;;9.80;5.77;;;8.70;99.90;;;;;;5117538;28;20453;-46
2022/11/07 02:06:42;;;;;;;11.50;7.57;;;8.60;99.90;;;;;;5117460;28;20473;-43
2022/11/07 02:09:08;;;;;;;13.20;6.60;;;8.60;99.90;;;;;;5117433;28;20509;-46
2022/11/07 02:11:36;;;;;;;14.40;7.50;;;8.60;99.90;;;;;;5117497;28;20445;-47
2022/11/07 02:14:04;;;;;;;12.83;7.63;;;8.60;99.90;;;;;;5117515;28;20418;-49
2022/11/07 02:16:35;;;;;;;14.23;8.30;;;8.70;99.90;;;;;;5117092;28;20405;-43
2022/11/07 02:19:04;;;;;;;10.97;6.70;;;8.60;99.90;;;;;;5117520;28;20464;-46
2022/11/07 02:21:41;;;;;;;9.47;6.50;;;8.60;99.90;;;;;;5117405;28;20433;-49
2022/11/07 02:24:23;;;;;;;9.03;6.60;;;8.60;99.90;;;;;;5117173;28;20440;-41
2022/11/07 02:26:52;;;;;;;11.07;7.07;;;8.70;99.90;;;;;;5117057;28;20421;-39
2022/11/07 02:29:20;;;;;;;7.50;5.40;;;8.70;99.90;;;;;;5116623;28;20501;-46
2022/11/07 02:31:46;;;;;;;11.10;5.70;;;8.70;99.90;;;;;;5116805;28;20489;-47
2022/11/07 02:34:13;;;;;;;12.80;8.13;;;8.70;99.90;;;;;;5116566;28;20444;-45
2022/11/07 02:36:41;;;;;;;12.07;6.93;;;8.70;99.90;;;;;;5116339;28;20449;-48
2022/11/07 02:39:09;;;;;;;10.90;6.37;;;8.70;99.90;;;;;;5116864;28;20437;-48
2022/11/07 02:41:37;;;;;;;9.63;5.63;;;8.80;99.90;;;;;;5116746;28;20509;-51
2022/11/07 02:44:09;;;;;;;11.07;6.87;;;9.10;99.90;;;;;;5116680;28;20525;-43
2022/11/07 02:46:39;;;;;;;9.70;5.67;;;8.90;99.90;;;;;;5116162;28;20528;-49
2022/11/07 02:49:06;;;;;;;11.90;6.87;;;8.90;99.90;;;;;;5116408;28;20521;-49
2022/11/07 02:51:33;;;;;;;14.73;8.13;;;8.90;99.90;;;;;;5105977;28;20437;-43
2022/11/07 02:54:00;;;;;;;11.17;6.53;;;8.90;99.90;;;;;;5115810;28;20484;-46
2022/11/07 02:56:27;;;;;;;8.07;5.63;;;8.90;99.90;;;;;;5107817;28;20473;-45
2022/11/07 02:58:55;;;;;;;8.43;5.77;;;9.00;99.90;;;;;;5116570;28;20501;-44
2022/11/07 03:01:23;;;;;;;9.93;5.57;;;9.00;99.90;;;;;;5115987;28;20489;-49
2022/11/07 03:03:51;;;;;;;11.23;4.97;;;9.10;99.90;;;;;;5116224;28;20432;-47
2022/11/07 03:06:23;;;;;;;10.60;4.73;;;9.10;99.90;;;;;;5116256;28;20457;-47
2022/11/07 03:08:50;;;;;;;15.97;6.87;;;9.10;99.90;;;;;;5116141;28;20430;-45
2022/11/07 03:11:19;;;;;;;10.00;5.80;;;9.10;99.90;;;;;;5115255;28;20442;-45
2022/11/07 03:13:49;;;;;;;22.00;11.23;;;9.10;99.90;;;;;;5115641;28;20489;-46
2022/11/07 03:16:19;;;;;;;11.50;6.90;;;9.10;99.90;;;;;;5115882;28;20501;-49
2022/11/07 03:18:45;;;;;;;10.57;6.23;;;9.10;99.90;;;;;;5115186;28;20489;-43
2022/11/07 03:21:15;;;;;;;12.17;5.97;;;9.20;99.90;;;;;;5115706;28;20437;-41
2022/11/07 03:23:45;;;;;;;8.63;5.10;;;9.20;99.90;;;;;;5115771;28;20493;-42
2022/11/07 03:26:16;;;;;;;13.53;6.50;;;9.20;99.90;;;;;;5115419;28;20520;-47
2022/11/07 03:28:43;;;;;;;6.73;4.77;;;9.30;99.90;;;;;;5116065;28;20454;-45
2022/11/07 03:31:10;;;;;;;8.10;5.63;;;9.30;99.90;;;;;;5115722;28;20433;-47
2022/11/07 03:33:38;;;;;;;4.97;4.43;;;9.40;99.90;;;;;;5115870;28;20491;-45
2022/11/07 03:36:05;;;;;;;8.47;5.57;;;9.50;99.90;;;;;;5115948;28;20453;-46
2022/11/07 03:38:32;;;;;;;5.70;4.67;;;9.50;99.90;;;;;;5115738;28;20505;-40
2022/11/07 03:40:59;;;;;;;9.83;4.90;;;9.50;99.90;;;;;;5115435;28;20505;-48
2022/11/07 03:43:26;;;;;;;7.50;5.07;;;9.50;99.90;;;;;;5115866;28;20433;-47
2022/11/07 03:45:52;;;;;;;9.20;5.33;;;9.50;99.90;;;;;;5115869;28;20433;-49
2022/11/07 03:48:22;;;;;;;7.67;4.90;;;9.60;99.90;;;;;;5115266;28;20445;-46
2022/11/07 03:50:51;;;;;;;12.60;5.27;;;9.60;99.90;;;;;;5115723;28;20525;-49
2022/11/07 03:53:19;;;;;;;7.47;4.40;;;9.60;99.90;;;;;;5115203;28;20473;-51
2022/11/07 03:55:47;;;;;;;6.63;5.60;;;9.60;99.90;;;;;;5113232;28;20446;-49
2022/11/07 03:58:16;;;;;;;8.37;5.50;;;9.70;99.90;;;;;;5109530;28;20425;-48
2022/11/07 04:00:45;;;;;;;5.57;3.90;;;9.70;99.90;;;;;;5115793;28;20437;-46
2022/11/07 04:03:12;;;;;;;6.40;4.60;;;9.70;99.90;;;;;;5115212;28;20517;-48
2022/11/07 04:05:39;;;;;;;6.90;4.20;;;9.70;99.90;;;;;;5114849;28;20456;-47
2022/11/07 04:08:08;;;;;;;6.50;4.50;;;9.80;99.90;;;;;;5106746;28;20436;-47
2022/11/07 04:10:34;;;;;;;8.13;4.90;;;9.80;99.90;;;;;;5115945;28;20490;-45
2022/11/07 04:18:34;;;;;;;8.77;5.10;;;9.90;99.90;;;;;;5119569;28;20438;-48
2022/11/07 04:21:00;;;;;;;8.40;4.33;;;9.90;99.90;;;;;;5119059;28;20525;-44
2022/11/07 04:23:29;;;;;;;10.67;5.00;;;10.00;99.90;;;;;;5119382;28;20442;-46
2022/11/07 04:28:43;;;;;;;4.80;3.73;;;9.90;99.90;;;;;;5119196;28;20413;-47
2022/11/07 04:31:09;;;;;;;6.17;4.40;;;10.00;99.90;;;;;;5112302;28;20437;-48
2022/11/07 04:33:36;;;;;;;7.73;5.00;;;9.90;99.90;;;;;;5118870;28;20498;-40
2022/11/07 04:36:03;;;;;;;8.33;4.80;;;10.00;99.90;;;;;;5119229;28;20497;-39
2022/11/07 04:38:32;;;;;;;6.97;4.17;;;9.90;99.90;;;;;;5119401;28;20485;-53
2022/11/07 04:41:01;;;;;;;6.50;3.77;;;9.90;99.90;;;;;;5119308;28;20413;-48
2022/11/07 04:43:28;;;;;;;6.63;4.53;;;9.90;99.90;;;;;;5119089;28;20447;-51
2022/11/07 04:45:55;;;;;;;7.37;3.97;;;9.90;99.90;;;;;;5118745;28;20552;-45
2022/11/07 04:48:22;;;;;;;7.60;4.53;;;9.90;99.90;;;;;;5119788;28;20425;-51
2022/11/07 04:50:51;;;;;;;10.00;5.00;;;9.90;99.90;;;;;;5119087;28;20550;-45
2022/11/07 04:53:18;;;;;;;6.17;4.23;;;9.90;99.90;;;;;;5119017;28;20461;-42
2022/11/07 04:55:46;;;;;;;7.80;4.40;;;9.90;99.90;;;;;;5118370;28;20426;-48
2022/11/07 04:58:13;;;;;;;11.10;5.00;;;9.80;99.90;;;;;;5118953;28;20497;-46
2022/11/07 05:00:40;;;;;;;8.03;4.93;;;9.90;99.90;;;;;;5118794;28;20437;-48
2022/11/07 05:03:08;;;;;;;6.50;3.90;;;9.90;99.90;;;;;;5118532;28;20465;-52
2022/11/07 05:05:36;;;;;;;6.40;4.77;;;9.90;99.90;;;;;;5118588;28;20460;-44
2022/11/07 05:08:03;;;;;;;8.07;5.10;;;9.90;99.90;;;;;;5119263;28;20471;-49
2022/11/07 05:10:30;;;;;;;5.07;3.63;;;10.00;99.90;;;;;;5119126;28;20441;-43
2022/11/07 05:12:58;;;;;;;8.13;4.50;;;10.00;99.90;;;;;;5118774;28;20481;-44
2022/11/07 05:15:25;;;;;;;8.20;4.13;;;9.90;99.90;;;;;;5119169;28;20500;-40
2022/11/07 05:17:52;;;;;;;6.03;4.60;;;9.90;99.90;;;;;;5119015;28;20440;-45
2022/11/07 05:20:37;;;;;;;5.93;4.53;;;9.90;99.90;;;;;;5118922;28;20440;-40
2022/11/07 05:23:17;;;;;;;9.20;4.27;;;9.90;99.90;;;;;;5116860;28;20418;-50
2022/11/07 05:25:46;;;;;;;5.80;3.27;;;9.90;99.90;;;;;;5117899;28;20446;-44
2022/11/07 05:28:16;;;;;;;5.23;3.60;;;9.90;99.90;;;;;;5117876;28;20461;-48
2022/11/07 05:30:44;;;;;;;6.53;3.60;;;9.90;99.90;;;;;;5112894;28;20529;-51
2022/11/07 05:33:13;;;;;;;10.30;5.27;;;9.90;99.90;;;;;;5114670;28;20531;-47
2022/11/07 05:35:40;;;;;;;9.20;4.77;;;10.00;99.90;;;;;;5117777;28;20436;-46
2022/11/07 05:38:07;;;;;;;6.27;3.97;;;9.90;99.90;;;;;;5117754;28;20445;-46
2022/11/07 05:40:38;;;;;;;5.20;3.97;;;9.90;99.90;;;;;;5117767;28;20472;-48
2022/11/07 05:43:09;;;;;;;8.60;4.60;;;9.90;99.90;;;;;;5117673;28;20442;-47
2022/11/07 05:45:37;;;;;;;6.73;4.13;;;9.90;99.90;;;;;;5117788;28;20466;-49
2022/11/07 05:48:06;;;;;;;5.67;3.97;;;9.90;99.90;;;;;;5117886;28;20442;-46
2022/11/07 05:50:35;;;;;;;5.70;3.87;;;9.90;99.90;;;;;;5117124;28;20501;-43
2022/11/07 05:53:03;;;;;;;4.60;3.83;;;9.90;99.90;;;;;;5117063;28;20481;-51
2022/11/07 05:55:33;;;;;;;4.13;3.07;;;9.90;99.90;;;;;;5117851;28;20441;-46
2022/11/07 05:58:00;;;;;;;4.87;3.53;;;9.90;99.90;;;;;;5117074;28;20489;-42
2022/11/07 06:00:26;;;;;;;5.57;3.20;;;9.90;99.90;;;;;;5117928;28;20510;-47
2022/11/07 06:02:59;;;;;;;6.70;3.90;;;9.90;99.90;;;;;;5117878;28;20446;-61
2022/11/07 06:05:26;;;;;;;4.90;3.80;;;10.00;99.90;;;;;;5112169;28;20476;-43
2022/11/07 06:07:56;;;;;;;7.90;4.07;;;10.00;99.90;;;;;;5116591;28;20429;-41
2022/11/07 06:10:24;;;;;;;4.87;3.80;;;10.00;99.90;;;;;;5117073;28;20473;-41
2022/11/07 06:12:58;;;;;;;7.13;4.10;;;10.10;99.90;;;;;;5117931;28;20451;-48
2022/11/07 06:15:25;;;;;;;4.70;3.50;;;10.10;99.90;;;;;;5115762;28;20425;-43
2022/11/07 06:17:52;;;;;;;5.67;3.83;;;10.20;99.90;;;;;;5111116;28;20426;-42
2022/11/07 06:20:21;;;;;;;5.80;4.13;;;10.20;99.90;;;;;;5117625;28;20497;-45
2022/11/07 06:22:51;;;;;;;7.23;4.20;;;10.20;99.90;;;;;;5116924;28;20465;-44
2022/11/07 06:25:18;;;;;;;6.50;3.60;;;10.20;99.90;;;;;;5116793;28;20517;-45
2022/11/07 06:27:45;;;;;;;9.00;3.80;;;10.20;99.90;;;;;;5116743;28;20441;-48
2022/11/07 06:30:12;;;;;;;6.27;3.77;;;10.20;99.90;;;;;;5116537;28;20497;-48
2022/11/07 06:32:43;;;;;;;6.77;4.10;;;10.20;99.90;;;;;;5116683;28;20457;-46
2022/11/07 06:35:10;;;;;;;6.37;3.77;;;10.20;99.90;;;;;;5115950;28;20492;-46
2022/11/07 06:37:38;;;;;;;9.20;3.43;;;10.20;99.90;;;;;;5116224;28;20530;-46
2022/11/07 06:40:06;;;;;;;5.97;4.07;;;10.20;99.90;;;;;;5116356;28;20497;-43
2022/11/07 06:42:32;;;;;;;4.90;3.50;;;10.20;99.90;;;;;;5116736;28;20503;-45
2022/11/07 06:44:59;;;;;;;5.20;3.37;;;10.10;99.90;;;;;;5116312;28;20437;-44
2022/11/07 06:47:26;;;;;;;4.80;3.53;;;10.20;99.90;;;;;;5116126;28;20469;-43
2022/11/07 06:49:53;;;;;;;5.03;3.47;;;10.20;99.90;;;;;;5116473;28;20441;-46
2022/11/07 06:52:19;;;;;;;5.93;3.53;;;10.10;99.90;;;;;;5116088;28;20446;-46
2022/11/07 06:54:48;;;;;;;5.80;3.87;;;10.20;99.90;;;;;;5115461;28;20465;-44
2022/11/07 06:57:19;;;;;;;6.07;3.57;;;10.10;99.90;;;;;;5115827;28;20535;-43
2022/11/07 06:59:46;;;;;;;5.37;3.97;;;10.10;99.90;;;;;;5116315;28;20495;-43
2022/11/07 07:02:15;;;;;;;11.73;4.90;;;10.10;99.90;;;;;;5115490;28;20438;-47
2022/11/07 07:04:42;;;;;;;5.60;3.20;;;10.20;99.90;;;;;;5116169;28;20502;-42
2022/11/07 07:07:09;;;;;;;4.70;3.77;;;10.20;99.90;;;;;;5116184;28;20465;-45
2022/11/07 07:09:35;;;;;;;6.07;3.93;;;10.20;99.90;;;;;;5116209;28;20521;-41
2022/11/07 07:12:04;;;;;;;7.50;4.00;;;10.20;99.90;;;;;;5115901;28;20489;-45
2022/11/07 07:14:32;;;;;;;4.73;4.23;;;10.30;99.90;;;;;;5116171;28;20480;-46
2022/11/07 07:16:59;;;;;;;3.73;2.70;;;10.30;99.90;;;;;;5116034;28;20425;-43
2022/11/07 07:19:25;;;;;;;4.43;3.27;;;10.30;99.90;;;;;;5115687;28;20422;-49
2022/11/07 07:21:52;;;;;;;5.03;4.07;;;10.30;99.90;;;;;;5115786;28;20437;-48
2022/11/07 07:24:19;;;;;;;7.30;4.37;;;10.30;99.90;;;;;;5115560;28;20461;-51
2022/11/07 07:26:46;;;;;;;6.07;3.40;;;10.40;99.90;;;;;;5115129;28;20441;-46
2022/11/07 07:29:16;;;;;;;4.87;3.30;;;10.40;99.90;;;;;;5115608;28;20437;-48
2022/11/07 07:31:43;;;;;;;6.00;3.77;;;10.50;99.90;;;;;;5115777;28;20434;-52
2022/11/07 07:34:10;;;;;;;4.97;3.57;;;10.50;99.90;;;;;;5115342;28;20487;-44
2022/11/07 07:36:36;;;;;;;6.43;3.40;;;10.60;99.90;;;;;;5115546;28;20483;-42
2022/11/07 07:39:03;;;;;;;4.73;2.90;;;10.60;99.90;;;;;;5115064;28;20473;-48
2022/11/07 07:41:30;;;;;;;7.50;4.27;;;10.70;99.90;;;;;;5115300;28;20483;-41
2022/11/07 07:43:57;;;;;;;6.87;3.87;;;10.70;99.90;;;;;;5115105;28;20430;-44
2022/11/07 07:46:25;;;;;;;12.90;3.80;;;10.80;99.90;;;;;;5114481;28;20441;-44
2022/11/07 07:48:52;;;;;;;4.13;3.73;;;10.80;99.90;;;;;;5115519;28;20533;-50
2022/11/07 07:51:19;;;;;;;3.63;2.63;;;10.90;99.90;;;;;;5115502;28;20447;-43
2022/11/07 07:53:46;;;;;;;6.17;2.73;;;10.90;99.90;;;;;;5115362;28;20488;-52
2022/11/07 07:56:13;;;;;;;5.50;3.07;;;10.90;99.90;;;;;;5115588;28;20433;-45
2022/11/07 07:58:40;;;;;;;7.10;3.67;;;11.00;99.90;;;;;;5114828;28;20433;-48
2022/11/07 08:01:09;;;;;;;2.90;2.37;;;11.00;99.90;;;;;;5111148;28;20469;-41
2022/11/07 08:03:38;;;;;;;4.83;3.10;;;10.90;99.90;;;;;;5105361;28;20472;-43
2022/11/07 08:06:05;;;;;;;5.27;2.90;;;10.90;99.90;;;;;;5114823;28;20465;-46
2022/11/07 08:08:33;;;;;;;2.03;1.83;;;10.90;99.90;;;;;;5115250;28;20457;-47
2022/11/07 08:11:02;;;;;;;6.60;3.20;;;10.90;99.90;;;;;;5115333;28;20463;-49
2022/11/07 08:13:31;;;;;;;6.60;2.40;;;10.90;99.90;;;;;;5115052;28;20548;-44
2022/11/07 08:15:58;;;;;;;5.90;3.70;;;10.90;99.90;;;;;;5115238;28;20441;-42
2022/11/07 08:18:25;;;;;;;4.70;3.50;;;10.90;99.90;;;;;;5115252;28;20525;-47
2022/11/07 08:20:55;;;;;;;6.53;2.40;;;11.00;99.90;;;;;;5115259;28;20497;-47
2022/11/07 08:23:23;;;;;;;3.43;3.13;;;11.00;99.90;;;;;;5115094;28;20437;-48
2022/11/07 08:25:51;;;;;;;3.37;2.60;;;11.00;99.90;;;;;;5114900;28;20461;-41
2022/11/07 08:28:21;;;;;;;4.70;2.80;;;11.20;99.90;;;;;;5115197;28;20472;-49
2022/11/07 08:30:55;;;;;;;2.60;2.30;;;11.10;99.90;;;;;;5114715;28;20480;-47
2022/11/07 08:33:22;;;;;;;4.00;2.40;;;11.10;99.90;;;;;;5114981;28;20436;-45
2022/11/07 08:35:49;;;;;;;4.53;3.37;;;11.60;99.90;;;;;;5114896;28;20469;-45
2022/11/07 08:38:17;;;;;;;8.10;3.87;;;11.10;99.90;;;;;;5114643;28;20465;-42
2022/11/07 08:40:44;;;;;;;2.27;1.83;;;11.20;99.90;;;;;;5114563;28;20438;-45
2022/11/07 08:43:10;;;;;;;4.23;3.07;;;11.20;99.90;;;;;;5114554;28;20471;-43
2022/11/07 08:45:37;;;;;;;6.97;3.20;;;11.30;99.90;;;;;;5113127;28;20452;-49
2022/11/07 08:48:06;;;;;;;2.93;2.13;;;11.40;99.90;;;;;;5111551;28;20541;-45
2022/11/07 08:50:33;;;;;;;3.90;1.53;;;11.50;99.90;;;;;;5114501;28;20442;-42
2022/11/07 08:53:00;;;;;;;3.13;2.10;;;11.60;99.90;;;;;;5114715;28;20866;-46
2022/11/07 08:55:28;;;;;;;2.83;2.00;;;11.70;99.90;;;;;;5124765;23;20488;-51
2022/11/07 08:57:57;;;;;;;4.10;2.90;;;11.80;99.90;;;;;;5096766;28;20458;-45
2022/11/07 09:00:24;;;;;;;4.03;2.60;;;11.90;99.90;;;;;;5097168;28;20514;-47
2022/11/07 09:02:51;;;;;;;6.07;3.80;;;11.90;99.90;;;;;;5097663;28;20470;-52
2022/11/07 09:05:20;;;;;;;4.07;2.73;;;11.90;99.90;;;;;;5096832;28;20442;-48
2022/11/07 09:07:50;;;;;;;3.93;2.70;;;12.00;99.90;;;;;;5091010;28;20521;-45
2022/11/07 09:10:17;;;;;;;4.50;2.40;;;12.00;99.90;;;;;;5096556;28;20450;-50
2022/11/07 09:12:49;;;;;;;4.50;3.17;;;12.00;99.90;;;;;;5097097;28;20470;-48
2022/11/07 09:15:17;;;;;;;3.37;1.90;;;12.10;99.90;;;;;;5096979;28;20482;-49
2022/11/07 09:17:45;;;;;;;3.30;2.10;;;12.10;99.90;;;;;;5096877;28;20545;-46
2022/11/07 09:20:13;;;;;;;3.10;2.10;;;12.20;99.90;;;;;;5097433;28;20522;-48
2022/11/07 09:22:42;;;;;;;2.67;2.00;;;12.30;99.90;;;;;;5097904;28;20449;-45
2022/11/07 09:25:10;;;;;;;2.07;1.83;;;12.50;99.90;;;;;;5097694;28;20503;-45
2022/11/07 09:27:38;;;;;;;2.57;1.80;;;13.10;99.90;;;;;;5097917;28;20493;-42
2022/11/07 09:30:08;;;;;;;3.67;2.30;;;13.80;99.90;;;;;;5097897;28;20435;-47
2022/11/07 09:32:34;;;;;;;2.60;1.73;;;14.20;99.90;;;;;;5098020;28;20465;-50
2022/11/07 09:35:01;;;;;;;3.20;2.27;;;14.20;99.90;;;;;;5096616;28;20474;-49
2022/11/07 09:37:28;;;;;;;2.20;1.97;;;14.50;99.90;;;;;;5097743;28;20458;-57
2022/11/07 09:39:55;;;;;;;2.20;1.60;;;15.30;99.90;;;;;;5097255;28;20469;-50
2022/11/07 09:42:36;;;;;;;3.23;2.33;;;16.20;99.90;;;;;;5097238;28;20515;-44
2022/11/07 09:45:03;;;;;;;2.00;1.80;;;16.60;99.90;;;;;;5096871;28;20513;-43
2022/11/07 09:47:36;;;;;;;3.33;2.30;;;16.50;99.90;;;;;;5097036;28;20434;-50
2022/11/07 09:50:11;;;;;;;3.50;1.70;;;16.30;99.90;;;;;;5096789;28;20427;-49
2022/11/07 09:52:43;;;;;;;4.97;1.83;;;16.10;99.90;;;;;;5097079;28;20443;-46
2022/11/07 09:55:18;;;;;;;3.50;1.60;;;16.00;99.90;;;;;;5095974;28;20492;-47
2022/11/07 09:57:48;;;;;;;2.83;1.60;;;16.40;99.90;;;;;;5096760;28;20563;-50
2022/11/07 10:00:18;;;;;;;4.43;2.00;;;17.10;99.90;;;;;;5096332;28;20438;-43
2022/11/07 10:02:49;;;;;;;2.30;1.40;;;17.70;99.90;;;;;;5096584;28;20485;-45
2022/11/07 10:05:27;;;;;;;1.87;1.60;;;18.40;99.90;;;;;;5096323;28;20455;-49
2022/11/07 10:08:00;;;;;;;1.80;1.60;;;19.00;99.90;;;;;;5096165;28;20424;-44
2022/11/07 10:10:36;;;;;;;4.37;2.10;;;19.60;99.90;;;;;;5086440;28;20534;-52
2022/11/07 10:13:28;;;;;;;3.33;2.80;;;19.80;99.90;;;;;;5096664;28;20446;-46
2022/11/07 10:16:06;;;;;;;2.03;1.80;;;19.80;99.90;;;;;;5096581;28;20502;-49
2022/11/07 10:18:50;;;;;;;3.73;2.40;;;20.00;99.90;;;;;;5096413;28;20513;-50
2022/11/07 10:21:26;;;;;;;1.77;1.63;;;20.10;99.90;;;;;;5096410;28;20443;-43
2022/11/07 10:24:11;;;;;;;2.17;1.73;;;20.00;99.90;;;;;;5096754;28;20438;-45
2022/11/07 10:26:43;;;;;;;3.47;2.20;;;20.20;99.90;;;;;;5095934;28;20446;-47
2022/11/07 10:29:13;;;;;;;3.27;2.03;;;20.10;99.90;;;;;;5096504;28;20470;-47
2022/11/07 10:31:43;;;;;;;4.27;2.07;;;20.10;99.90;;;;;;5095982;28;20442;-45
2022/11/07 10:34:20;;;;;;;2.00;1.80;;;19.90;99.90;;;;;;5095774;28;20458;-48
2022/11/07 10:36:47;;;;;;;25.27;11.40;;;19.70;99.90;;;;;;5095691;28;20459;-46
2022/11/07 10:39:15;;;;;;;8.90;5.70;;;19.60;99.90;;;;;;5095331;28;20446;-52
2022/11/07 10:41:46;;;;;;;3.97;2.77;;;19.40;99.90;;;;;;5085904;28;20453;-47
2022/11/07 10:44:20;;;;;;;2.37;1.83;;;19.30;99.90;;;;;;5091054;28;20431;-45
2022/11/07 10:46:49;;;;;;;4.80;3.33;;;19.30;99.90;;;;;;5096177;28;20449;-51
2022/11/07 10:49:21;;;;;;;4.20;2.53;;;19.60;99.90;;;;;;5095995;28;20450;-47
2022/11/07 10:51:49;;;;;;;2.40;1.80;;;18.90;99.90;;;;;;5095125;28;20421;-45
2022/11/07 10:54:27;;;;;;;2.07;1.57;;;18.30;99.90;;;;;;5095110;28;20446;-51
2022/11/07 10:57:00;;;;;;;2.27;1.40;;;17.70;99.90;;;;;;5095141;28;20450;-51
2022/11/07 10:59:29;;;;;;;1.90;1.70;;;17.10;99.90;;;;;;5094889;28;20474;-52
2022/11/07 11:01:58;;;;;;;8.93;2.50;;;16.70;99.90;;;;;;5094821;28;20455;-47
2022/11/07 11:04:29;;;;;;;6.53;2.23;;;16.40;99.90;;;;;;5094749;28;20435;-48
2022/11/07 11:07:04;;;;;;;3.23;1.47;;;16.20;99.90;;;;;;5094478;28;20442;-49
2022/11/07 11:09:33;;;;;;;4.10;2.00;;;16.00;99.90;;;;;;5083503;28;20443;-45
2022/11/07 11:12:05;;;;;;;1.90;1.70;;;15.90;99.90;;;;;;5075999;28;20459;-50
2022/11/07 11:14:32;;;;;;;2.47;1.60;;;15.70;99.90;;;;;;5076524;28;20494;-47
2022/11/07 11:16:59;;;;;;;2.07;1.27;;;15.60;99.90;;;;;;5076369;28;20437;-51
2022/11/07 11:19:35;;;;;;;2.63;1.60;;;15.60;99.90;;;;;;5075381;28;20433;-50
2022/11/07 11:22:05;;;;;;;4.03;1.77;;;15.40;99.90;;;;;;5075395;28;20431;-45
2022/11/07 11:24:37;;;;;;;3.00;2.20;;;15.40;99.90;;;;;;5076488;28;20523;-47
2022/11/07 11:27:11;;;;;;;2.03;1.63;;;15.40;99.90;;;;;;5076263;28;20423;-47
2022/11/07 11:29:43;;;;;;;3.43;2.00;;;15.40;99.90;;;;;;5066508;28;20447;-47
2022/11/07 11:32:20;;;;;;;1.97;1.60;;;15.30;99.90;;;;;;5076537;28;20434;-47
2022/11/07 11:34:58;;;;;;;2.43;1.60;;;15.30;99.90;;;;;;5075880;28;20489;-45
2022/11/07 11:37:26;;;;;;;3.30;2.20;;;15.20;99.90;;;;;;5075283;28;20481;-46
2022/11/07 11:40:06;;;;;;;2.77;1.97;;;15.20;99.90;;;;;;5076240;28;20466;-49
2022/11/07 11:42:42;;;;;;;1.67;1.33;;;15.20;99.90;;;;;;5076512;28;20491;-40
2022/11/07 11:45:20;;;;;;;2.83;1.60;;;15.20;99.90;;;;;;5076115;28;20423;-48
2022/11/07 11:47:54;;;;;;;2.47;1.47;;;15.10;99.90;;;;;;5075749;28;20487;-45
2022/11/07 11:50:28;;;;;;;4.40;1.50;;;15.10;99.90;;;;;;5076361;28;20431;-45
2022/11/07 11:52:58;;;;;;;3.77;1.50;;;15.10;99.90;;;;;;5076303;28;20454;-43
2022/11/07 11:55:33;;;;;;;3.60;1.80;;;15.10;99.90;;;;;;5067760;28;20501;-47
2022/11/07 11:58:08;;;;;;;3.63;1.70;;;15.20;99.90;;;;;;5075616;28;20487;-47
2022/11/07 12:00:43;;;;;;;4.40;2.03;;;15.20;99.90;;;;;;5076359;28;20473;-46
2022/11/07 12:03:30;;;;;;;1.93;1.73;;;15.30;99.90;;;;;;5076325;28;20431;-46
2022/11/07 12:06:11;;;;;;;1.70;1.40;;;15.50;99.90;;;;;;5076483;28;20451;-47
2022/11/07 12:09:00;;;;;;;3.20;1.53;;;15.50;99.90;;;;;;5075705;28;20424;-47
2022/11/07 12:11:33;;;;;;;9.17;4.37;;;15.50;99.90;;;;;;5076316;28;20482;-48
2022/11/07 12:14:18;;;;;;;7.10;3.83;;;15.50;99.90;;;;;;5076287;28;20498;-46
2022/11/07 12:16:50;;;;;;;2.37;1.70;;;15.50;99.90;;;;;;5076277;28;20972;-61
2022/11/07 12:19:24;;;;;;;7.30;2.67;;;15.50;99.90;;;;;;5076163;28;20557;-54
2022/11/07 12:22:04;;;;;;;11.20;2.30;;;15.40;99.90;;;;;;5076125;28;20430;-60
2022/11/07 12:24:43;;;;;;;18.77;5.80;;;15.40;99.90;;;;;;5075758;28;20478;-55
2022/11/07 12:27:18;;;;;;;6.53;3.20;;;15.40;99.90;;;;;;5075867;28;20506;-58
2022/11/07 12:30:05;;;;;;;8.07;2.47;;;15.40;99.90;;;;;;5063668;28;20444;-59
2022/11/07 12:32:48;;;;;;;3.20;2.13;;;15.30;99.90;;;;;;5078232;28;20493;-57
2022/11/07 12:35:31;;;;;;;2.77;2.20;;;15.20;99.90;;;;;;5080010;28;20463;-58
2022/11/07 12:38:17;;;;;;;2.80;1.80;;;15.20;99.90;;;;;;5079881;28;20564;-58
2022/11/07 12:40:51;;;;;;;2.33;1.37;;;15.20;99.90;;;;;;5080303;28;20427;-57
2022/11/07 12:43:34;;;;;;;2.30;1.50;;;15.20;99.90;;;;;;5079729;28;20442;-53
2022/11/07 12:46:08;;;;;;;2.27;1.50;;;15.30;99.90;;;;;;5078812;28;20415;-60
2022/11/07 12:49:04;;;;;;;2.77;1.43;;;15.30;99.90;;;;;;5078731;28;20421;-58
2022/11/07 12:51:42;;;;;;;10.83;1.60;;;15.20;99.90;;;;;;5078930;28;20497;-58
2022/11/07 12:54:36;;;;;;;4.77;1.40;;;15.20;99.90;;;;;;5078663;28;20463;-55
2022/11/07 12:57:07;;;;;;;2.40;1.40;;;15.20;99.90;;;;;;5078474;28;20501;-59
2022/11/07 12:59:37;;;;;;;2.80;1.30;;;15.10;99.90;;;;;;5079238;28;20462;-55
2022/11/07 13:02:08;;;;;;;2.47;2.00;;;15.10;99.90;;;;;;5079330;28;20522;-60
2022/11/07 13:04:41;;;;;;;1.67;1.50;;;15.00;99.90;;;;;;5079709;28;20458;-58
2022/11/07 13:07:15;;;;;;;3.30;1.50;;;15.00;99.90;;;;;;5079823;28;20427;-59
2022/11/07 13:09:52;;;;;;;3.17;1.37;;;15.00;99.90;;;;;;5072527;28;20472;-58
2022/11/07 13:12:26;;;;;;;5.57;1.53;;;15.00;99.90;;;;;;5080030;28;20437;-54